Tropical Cyclones
[Index]
Main Index Home Page Stock Weather Photos Extreme Storms Discussion Storm News and Storm Chasing Reports Tropical Cyclones / Hurricanes / Typhoons Weather Data and Links Wild Fires / Bushfires Weather Observation Techniques Weather Picture Catalogue Tornado Pictures and Reports Stock Video Footage and DVDs for sale
Season 1969-1970 Tropical Cyclone KATHY Track Map
Season 1969-1970 Summaries: [BoM-AU] [JTWC-AU] [JTWC-SIO] [JTWC-SPAC] [JTWC-SH]
<<- Previous TC | BoM 1969-1970 Season | Next TC ->>

click for intensity scale information  Lat/long Grid: Show Hide

 Date Labels: Show Hide

Bureau of Meteorology Tropical Cyclone Data

Name: KATHY
Number: 463 / 196970_13

19 Mar 1970 00:00 UTC to 30 Mar 1970 12:00 UTC

    date/time    lat    long    hPa   cat  kts
1970-03-19 00   11.0    98.0   1006                     
1970-03-20 00    8.0    96.0   1004                     
1970-03-21 00    8.0    93.0   1002                     
1970-03-22 00   10.0    95.0   1002                     
1970-03-23 00   12.9    90.6   1000                     
1970-03-23 06   13.1    90.3                            
1970-03-23 12   13.2    89.7                            
1970-03-23 18   13.3    89.0                            
1970-03-24 00   13.4    88.2    995    1                
1970-03-24 06   13.6    87.4                            
1970-03-24 12   13.9    86.6                            
1970-03-24 18   14.2    85.8                            
1970-03-25 00   14.5    85.0    990    1                
1970-03-25 06   14.8    83.9                            
1970-03-25 12   15.1    82.7                            
1970-03-25 18   15.4    81.6                            
1970-03-26 00   15.7    80.7    990    1                
1970-03-26 06   16.0    80.1                            
1970-03-26 12   16.4    79.5                            
1970-03-26 18   16.7    78.9                            
1970-03-27 00   17.1    78.2    990    1                
1970-03-27 06   17.5    77.4                            
1970-03-27 12   18.0    76.6                            
1970-03-27 18   18.4    76.0                            
1970-03-28 00   18.8    75.4    990    1                
1970-03-28 06   19.2    74.7                            
1970-03-28 12   19.6    73.9                            
1970-03-28 18   20.0    73.2                            
1970-03-29 00   20.5    72.5                            
1970-03-29 06   20.9    71.9                            
1970-03-29 12   21.4    71.3                            
1970-03-29 18   21.9    70.7                            
1970-03-30 00   22.5    70.1                            
1970-03-30 06   23.2    69.4                            
1970-03-30 12   24.0    68.6                            
Winds are 10-min average.

Tropical cyclone tracks developed by Michael Bath using data from the Bureau of Meteorology and Google Maps.


[Australian Severe Weather index] [Copyright Notice] [Email Contacts] [Search This Site] [Privacy Policy]
Document: tropical_cyclone_kathy.htm Updated: 30 May 2013